createdAt,value
2018-06-19T00:04:21.807Z,4.78
2018-06-19T00:09:25.493Z,5.60
2018-06-19T00:14:29.047Z,4.40
2018-06-19T00:19:33.341Z,7.05
2018-06-19T00:24:37.017Z,7.55
2018-06-19T00:29:40.637Z,4.78
2018-06-19T00:34:46.345Z,6.92
2018-06-19T00:39:50.995Z,5.15
2018-06-19T00:44:54.743Z,4.85
2018-06-19T00:49:58.323Z,5.40
2018-06-19T00:55:01.856Z,5.00
2018-06-19T01:00:05.409Z,5.43
2018-06-19T01:05:08.947Z,7.90
2018-06-19T01:10:13.606Z,6.97
2018-06-19T01:15:17.176Z,5.92
2018-06-19T01:20:20.997Z,5.03
2018-06-19T01:25:24.636Z,5.00
2018-06-19T01:30:28.650Z,5.40
2018-06-19T01:35:33.907Z,6.42
2018-06-19T01:40:37.555Z,5.35
2018-06-19T01:45:41.839Z,8.33
2018-06-19T01:50:48.389Z,4.55
2018-06-19T01:55:52.039Z,4.50
2018-06-19T02:00:55.672Z,5.28
2018-06-19T02:07:23.673Z,5.25
2018-06-19T02:12:29.783Z,5.15
2018-06-19T02:17:33.559Z,4.77
2018-06-19T02:22:37.459Z,5.87
2018-06-19T02:27:41.072Z,5.40
2018-06-19T02:32:44.673Z,4.67
2018-06-19T02:37:48.585Z,4.80
2018-06-19T02:42:52.230Z,6.10
2018-06-19T02:47:55.896Z,5.00
2018-06-19T02:53:04.475Z,8.38
2018-06-19T02:58:07.981Z,4.70
2018-06-19T03:03:15.709Z,6.62
2018-06-19T03:08:21.879Z,5.47
2018-06-19T03:19:41.120Z,5.87
2018-06-19T03:24:47.749Z,5.00
2018-06-19T03:29:52.413Z,5.17
2018-06-19T03:34:56.483Z,5.22
2018-06-19T03:40:00.548Z,6.60
2018-06-19T03:45:04.885Z,5.45
2018-06-19T03:50:08.890Z,6.57
2018-06-19T03:55:12.455Z,7.03
2018-06-19T04:00:19.873Z,6.00
2018-06-19T04:05:24.717Z,8.93
2018-06-19T04:10:28.836Z,5.90
2018-06-19T04:15:32.573Z,5.75
2018-06-19T04:20:36.552Z,7.20
2018-06-19T04:25:40.735Z,7.10
2018-06-19T04:30:44.643Z,6.10
2018-06-19T04:36:14.601Z,5.90
2018-06-19T04:41:18.931Z,4.90
2018-06-19T04:46:22.599Z,5.53
2018-06-19T04:51:26.414Z,4.70
2018-06-19T04:56:30.104Z,5.20
2018-06-19T05:01:33.679Z,5.10
2018-06-19T05:06:37.411Z,5.30
2018-06-19T05:11:41.852Z,5.27
2018-06-19T05:16:45.763Z,5.25
2018-06-19T05:21:49.487Z,5.12
2018-06-19T05:26:54.105Z,5.73
2018-06-19T05:31:57.726Z,4.85
2018-06-19T05:37:01.566Z,5.15
2018-06-19T05:42:04.954Z,4.50
2018-06-19T05:47:08.974Z,5.53
2018-06-19T05:52:12.623Z,4.83
2018-06-19T05:57:16.201Z,4.50
2018-06-19T06:02:19.837Z,5.10
2018-06-19T06:07:23.397Z,4.40
2018-06-19T06:12:27.045Z,4.75
2018-06-19T06:17:30.673Z,4.17
2018-06-19T06:22:34.347Z,5.60
2018-06-19T06:27:37.873Z,4.30
2018-06-19T06:32:41.842Z,5.10
2018-06-19T06:37:45.528Z,5.30
2018-06-19T06:42:53.939Z,5.35
2018-06-19T06:47:59.265Z,4.10
2018-06-19T06:53:03.191Z,4.42
2018-06-19T06:58:06.896Z,5.67
2018-06-19T07:03:10.593Z,4.67
2018-06-19T07:08:14.263Z,4.00
2018-06-19T07:13:18.001Z,4.75
2018-06-19T07:18:21.769Z,4.62
2018-06-19T07:23:25.824Z,3.60
2018-06-19T07:28:29.602Z,2.87
2018-06-19T07:33:34.779Z,3.50
2018-06-19T07:38:38.992Z,5.60
2018-06-19T07:43:44.144Z,5.80
2018-06-19T07:48:51.393Z,3.60
2018-06-19T07:53:55.697Z,4.37
2018-06-19T07:58:59.493Z,5.37
2018-06-19T08:04:03.279Z,4.97
2018-06-19T08:09:08.875Z,3.17
2018-06-19T08:14:12.553Z,3.90
2018-06-19T08:19:16.260Z,4.35
2018-06-19T08:24:20.176Z,5.83
2018-06-19T08:29:23.956Z,3.42
2018-06-19T08:34:29.766Z,3.10
2018-06-19T08:39:35.561Z,3.10
2018-06-19T08:44:39.285Z,3.90
2018-06-19T08:49:43.049Z,3.40
2018-06-19T08:54:47.067Z,3.05
2018-06-19T08:59:51.678Z,6.90
2018-06-19T09:04:55.517Z,2.90
2018-06-19T09:09:59.235Z,6.00
2018-06-19T09:15:08.189Z,5.58
2018-06-19T09:20:11.948Z,4.80
2018-06-19T09:25:15.605Z,3.40
2018-06-19T09:30:19.472Z,2.97
2018-06-19T09:35:23.924Z,3.00
2018-06-19T09:40:27.626Z,5.80
2018-06-19T09:45:33.874Z,3.10
2018-06-19T09:50:38.999Z,3.73
2018-06-19T09:55:44.597Z,4.30
2018-06-19T10:00:50.380Z,3.40
2018-06-19T10:05:57.398Z,4.10
2018-06-19T10:11:03.754Z,5.37
2018-06-19T10:16:23.177Z,5.43
2018-06-19T10:21:42.483Z,4.15
2018-06-19T10:26:59.004Z,4.10
2018-06-19T10:32:41.589Z,2.92
2018-06-19T10:43:29.597Z,3.55
2018-06-19T11:00:05.920Z,3.00
2018-06-19T11:05:13.264Z,5.05
2018-06-19T11:10:18.048Z,7.40
2018-06-19T11:15:22.835Z,3.12
2018-06-19T11:25:47.873Z,4.78
2018-06-19T11:30:55.164Z,2.20
2018-06-19T11:36:06.044Z,2.75
2018-06-19T11:41:10.739Z,3.12
2018-06-19T11:46:23.584Z,2.90
2018-06-19T11:51:57.616Z,5.90
2018-06-19T11:57:18.625Z,1.60
2018-06-19T12:02:39.996Z,2.52
2018-06-19T12:47:16.691Z,1.80
2018-06-19T12:52:31.551Z,2.70
2018-06-19T12:57:54.427Z,2.65
2018-06-19T13:03:09.346Z,2.10
2018-06-19T13:08:13.504Z,6.00
2018-06-19T13:13:29.693Z,2.10
2018-06-19T13:18:48.290Z,3.10
2018-06-19T13:23:53.278Z,2.70
2018-06-19T13:30:11.489Z,2.10
2018-06-19T13:35:15.366Z,1.72
2018-06-19T13:41:29.256Z,1.90
2018-06-19T13:46:33.092Z,1.92
2018-06-19T13:51:37.320Z,2.40
2018-06-19T14:08:06.127Z,3.17
2018-06-19T14:18:52.150Z,3.08
2018-06-19T14:23:56.750Z,3.22
2018-06-19T14:29:00.459Z,2.40
2018-06-19T14:34:04.124Z,3.17
2018-06-19T14:39:08.249Z,2.90
2018-06-19T14:44:11.786Z,2.45
2018-06-19T14:49:15.469Z,2.83
2018-06-19T14:54:20.296Z,3.23
2018-06-19T14:59:24.296Z,2.40
2018-06-19T15:04:31.433Z,3.77
2018-06-19T15:09:36.150Z,3.15
2018-06-19T15:14:39.943Z,2.58
2018-06-19T15:19:43.654Z,2.50
2018-06-19T15:24:49.156Z,2.22
2018-06-19T15:29:52.809Z,1.90
2018-06-19T15:34:57.501Z,1.72
2018-06-19T15:40:01.243Z,2.77
2018-06-19T15:45:05.860Z,2.17
2018-06-19T15:50:09.757Z,2.00
2018-06-19T15:55:16.886Z,2.83
2018-06-19T16:00:20.655Z,1.90
2018-06-19T16:05:29.513Z,1.92
2018-06-19T16:10:33.110Z,3.80
2018-06-19T16:15:36.865Z,2.75
2018-06-19T16:20:40.415Z,2.30
2018-06-19T16:25:46.361Z,3.80
2018-06-19T16:30:50.070Z,2.10
2018-06-19T16:35:56.004Z,2.80
2018-06-19T16:41:00.672Z,1.90
2018-06-19T16:46:04.364Z,3.90
2018-06-19T16:51:08.064Z,3.00
2018-06-19T16:56:15.376Z,2.20
2018-06-19T17:01:20.114Z,2.62
2018-06-19T17:06:23.666Z,1.90
2018-06-19T17:11:34.988Z,2.27
2018-06-19T17:16:39.171Z,1.72
2018-06-19T17:27:30.137Z,2.62
2018-06-19T17:32:33.918Z,2.37
2018-06-19T17:37:44.331Z,2.60
2018-06-19T17:42:48.229Z,2.75
2018-06-19T17:53:19.984Z,2.47
2018-06-19T17:58:33.961Z,3.17
2018-06-19T18:03:40.471Z,2.50
2018-06-19T18:09:01.955Z,3.40
2018-06-19T18:14:09.922Z,2.70
2018-06-19T18:19:14.923Z,3.30
2018-06-19T18:24:30.461Z,2.10
2018-06-19T18:29:34.327Z,2.52
2018-06-19T18:34:41.516Z,2.30
2018-06-19T18:39:45.333Z,4.30
2018-06-19T18:44:49.058Z,2.55
2018-06-19T18:50:06.274Z,2.30
2018-06-19T19:00:52.601Z,5.05
2018-06-19T19:05:57.229Z,2.40
2018-06-19T19:11:04.795Z,3.22
2018-06-19T19:16:27.941Z,2.60
2018-06-19T19:21:35.259Z,3.93
2018-06-19T19:26:44.122Z,4.70
2018-06-19T19:31:48.850Z,3.30
2018-06-19T19:37:01.801Z,3.10
2018-06-19T19:42:14.985Z,4.40
2018-06-19T19:47:24.579Z,3.50
2018-06-19T19:52:35.439Z,3.15
2018-06-19T19:57:53.565Z,3.37
2018-06-19T20:02:59.745Z,3.50
2018-06-19T20:13:45.315Z,3.20
2018-06-19T20:18:54.788Z,3.20
2018-06-19T20:24:01.231Z,3.80
2018-06-19T20:29:12.874Z,3.50
2018-06-19T20:34:16.378Z,3.15
2018-06-19T20:45:07.635Z,3.30
2018-06-19T20:50:29.945Z,3.50
2018-06-19T20:55:34.762Z,3.80
2018-06-19T21:00:41.881Z,3.52
2018-06-19T21:05:59.602Z,3.75
2018-06-19T21:11:05.702Z,3.47
2018-06-19T21:16:12.750Z,3.70
2018-06-19T21:21:23.972Z,3.73
2018-06-19T21:26:27.581Z,3.60
2018-06-19T21:31:31.036Z,3.58
2018-06-19T21:47:55.719Z,4.40
2018-06-19T21:53:01.991Z,4.12
2018-06-19T21:58:09.302Z,3.95
2018-06-19T22:03:14.630Z,4.30
2018-06-19T22:09:33.987Z,3.87
2018-06-19T22:14:49.129Z,3.40
2018-06-19T22:25:39.893Z,4.00
2018-06-19T22:53:21.186Z,5.00
2018-06-19T23:04:09.611Z,4.80
2018-06-19T23:14:54.026Z,4.90
2018-06-19T23:20:04.790Z,5.33
2018-06-19T23:25:10.405Z,5.60
2018-06-19T23:30:14.284Z,5.20
2018-06-19T23:35:20.105Z,5.20
2018-06-19T23:40:25.146Z,5.40
2018-06-19T23:45:28.712Z,5.00
2018-06-19T23:50:35.804Z,5.90
2018-06-19T23:55:41.883Z,6.40
